createdAt,value
2018-04-29T00:02:06.454Z,18.40
2018-04-29T00:04:33.443Z,17.17
2018-04-29T00:07:00.321Z,17.42
2018-04-29T00:09:27.133Z,16.10
2018-04-29T00:11:54.009Z,16.90
2018-04-29T00:14:20.839Z,17.42
2018-04-29T00:16:47.696Z,18.33
2018-04-29T00:19:14.522Z,17.45
2018-04-29T00:21:41.324Z,17.75
2018-04-29T00:24:08.119Z,18.50
2018-04-29T00:26:34.954Z,18.15
2018-04-29T00:29:01.704Z,19.70
2018-04-29T00:31:29.030Z,20.45
2018-04-29T00:33:55.912Z,18.23
2018-04-29T00:36:22.646Z,19.73
2018-04-29T00:38:50.061Z,19.95
2018-04-29T00:41:16.786Z,19.05
2018-04-29T00:43:43.514Z,19.65
2018-04-29T00:46:10.322Z,18.67
2018-04-29T00:48:37.047Z,19.48
2018-04-29T00:51:03.899Z,19.05
2018-04-29T00:53:30.668Z,19.42
2018-04-29T00:55:57.474Z,19.62
2018-04-29T00:58:24.288Z,20.77
2018-04-29T01:00:51.075Z,21.00
2018-04-29T01:03:18.748Z,20.27
2018-04-29T01:05:45.633Z,21.73
2018-04-29T01:08:12.429Z,23.00
2018-04-29T01:10:39.192Z,23.12
2018-04-29T01:13:06.027Z,23.55
2018-04-29T01:15:32.844Z,21.70
2018-04-29T01:17:59.620Z,21.92
2018-04-29T01:20:26.468Z,23.55
2018-04-29T01:22:53.228Z,21.12
2018-04-29T01:25:19.972Z,24.10
2018-04-29T01:27:46.762Z,22.02
2018-04-29T01:30:13.533Z,21.60
2018-04-29T01:32:40.506Z,21.92
2018-04-29T01:35:07.300Z,23.45
2018-04-29T01:37:34.055Z,22.50
2018-04-29T01:40:00.857Z,20.92
2018-04-29T01:42:27.579Z,22.85
2018-04-29T01:44:54.366Z,23.15
2018-04-29T01:47:21.102Z,22.05
2018-04-29T01:49:47.834Z,19.85
2018-04-29T01:52:14.584Z,22.50
2018-04-29T01:54:41.310Z,22.35
2018-04-29T01:57:08.042Z,22.42
2018-04-29T01:59:34.770Z,19.52
2018-04-29T02:02:01.503Z,21.80
2018-04-29T02:04:28.251Z,21.95
2018-04-29T02:06:54.972Z,22.87
2018-04-29T02:09:21.702Z,23.05
2018-04-29T02:11:49.824Z,26.85
2018-04-29T02:14:16.698Z,25.67
2018-04-29T02:16:43.418Z,25.05
2018-04-29T02:19:10.167Z,26.08
2018-04-29T02:21:36.884Z,25.33
2018-04-29T02:24:03.600Z,26.27
2018-04-29T02:26:30.328Z,26.20
2018-04-29T02:28:57.052Z,26.30
2018-04-29T02:31:23.884Z,26.25
2018-04-29T02:33:50.559Z,26.23
2018-04-29T02:36:17.282Z,29.63
2018-04-29T02:38:44.004Z,25.00
2018-04-29T02:41:10.743Z,24.08
2018-04-29T02:43:37.497Z,28.17
2018-04-29T02:46:04.223Z,23.35
2018-04-29T02:48:30.974Z,25.37
2018-04-29T02:50:57.699Z,23.80
2018-04-29T02:53:24.429Z,22.52
2018-04-29T02:55:51.159Z,24.30
2018-04-29T02:58:17.921Z,23.55
2018-04-29T03:00:44.643Z,23.67
2018-04-29T03:03:11.363Z,24.35
2018-04-29T03:05:38.082Z,23.15
2018-04-29T03:08:05.075Z,24.35
2018-04-29T03:10:32.432Z,24.98
2018-04-29T03:12:59.262Z,22.90
2018-04-29T03:15:25.974Z,23.83
2018-04-29T03:17:52.710Z,25.37
2018-04-29T03:20:19.455Z,24.73
2018-04-29T03:22:46.204Z,25.12
2018-04-29T03:25:12.930Z,25.65
2018-04-29T03:27:39.670Z,26.65
2018-04-29T03:30:06.395Z,26.83
2018-04-29T03:32:33.124Z,27.23
2018-04-29T03:34:59.874Z,24.40
2018-04-29T03:37:26.595Z,27.20
2018-04-29T03:39:54.233Z,26.73
2018-04-29T03:42:20.959Z,24.95
2018-04-29T03:44:47.680Z,28.38
2018-04-29T03:47:14.615Z,25.77
2018-04-29T03:49:41.726Z,25.42
2018-04-29T03:52:08.441Z,26.42
2018-04-29T03:54:35.163Z,26.98
2018-04-29T03:57:07.820Z,25.20
2018-04-29T03:59:40.378Z,26.25
2018-04-29T04:02:22.939Z,26.02
2018-04-29T04:04:49.663Z,26.27
2018-04-29T04:07:16.446Z,29.02
2018-04-29T04:09:43.232Z,27.27
2018-04-29T04:12:09.925Z,28.17
2018-04-29T04:14:36.649Z,27.23
2018-04-29T04:17:03.538Z,26.10
2018-04-29T04:19:30.411Z,28.00
2018-04-29T04:21:57.215Z,28.58
2018-04-29T04:24:23.939Z,24.85
2018-04-29T04:26:50.663Z,27.33
2018-04-29T04:29:17.388Z,24.55
2018-04-29T04:31:44.171Z,25.27
2018-04-29T04:34:11.739Z,26.58
2018-04-29T04:36:38.975Z,26.75
2018-04-29T04:39:05.779Z,28.10
2018-04-29T04:41:32.503Z,25.98
2018-04-29T04:43:59.244Z,25.92
2018-04-29T04:46:25.990Z,25.27
2018-04-29T04:48:52.708Z,23.98
2018-04-29T04:51:19.458Z,25.05
2018-04-29T04:53:46.260Z,26.27
2018-04-29T04:56:13.837Z,26.02
2018-04-29T04:58:40.563Z,26.67
2018-04-29T05:01:07.288Z,24.02
2018-04-29T05:03:34.020Z,25.58
2018-04-29T05:06:00.770Z,25.05
2018-04-29T05:08:27.524Z,25.83
2018-04-29T05:10:54.294Z,25.40
2018-04-29T05:13:21.005Z,27.13
2018-04-29T05:15:47.732Z,25.37
2018-04-29T05:18:14.470Z,27.73
2018-04-29T05:20:41.458Z,28.08
2018-04-29T05:23:08.185Z,29.05
2018-04-29T05:25:34.908Z,28.00
2018-04-29T05:28:01.628Z,28.95
2018-04-29T05:30:28.407Z,27.92
2018-04-29T05:32:55.127Z,25.90
2018-04-29T05:35:21.953Z,26.35
2018-04-29T05:37:48.725Z,25.90
2018-04-29T05:40:15.522Z,25.67
2018-04-29T05:42:42.313Z,23.95
2018-04-29T05:45:09.077Z,23.90
2018-04-29T05:47:35.954Z,20.45
2018-04-29T05:50:02.788Z,20.08
2018-04-29T05:52:29.600Z,26.40
2018-04-29T05:54:56.376Z,20.40
2018-04-29T05:57:23.185Z,18.58
2018-04-29T05:59:50.036Z,17.58
2018-04-29T06:02:16.821Z,16.08
2018-04-29T06:04:43.621Z,16.30
2018-04-29T06:07:10.449Z,14.30
2018-04-29T06:09:37.251Z,13.47
2018-04-29T06:12:04.060Z,13.47
2018-04-29T06:14:30.846Z,13.33
2018-04-29T06:16:57.609Z,13.40
2018-04-29T06:19:24.396Z,12.40
2018-04-29T06:21:51.153Z,11.63
2018-04-29T06:24:18.006Z,12.60
2018-04-29T06:26:44.829Z,12.40
2018-04-29T06:29:11.647Z,12.27
2018-04-29T06:31:38.455Z,11.37
2018-04-29T06:34:05.238Z,11.83
2018-04-29T06:36:32.015Z,11.57
2018-04-29T06:38:58.776Z,10.50
2018-04-29T06:41:26.473Z,11.13
2018-04-29T06:43:53.281Z,11.03
2018-04-29T06:46:20.059Z,11.50
2018-04-29T06:48:46.898Z,11.00
2018-04-29T06:51:13.683Z,10.17
2018-04-29T06:53:40.485Z,10.10
2018-04-29T06:56:07.250Z,10.53
2018-04-29T06:58:34.023Z,10.70
2018-04-29T07:01:00.780Z,10.97
2018-04-29T07:03:27.553Z,10.90
2018-04-29T07:05:54.452Z,10.13
2018-04-29T07:08:21.237Z,10.40
2018-04-29T07:10:48.042Z,10.93
2018-04-29T07:13:14.840Z,12.33
2018-04-29T07:15:42.290Z,11.07
2018-04-29T07:18:09.308Z,10.17
2018-04-29T07:20:36.068Z,9.77
2018-04-29T07:23:02.886Z,10.90
2018-04-29T07:25:29.724Z,11.53
2018-04-29T07:27:56.498Z,16.33
2018-04-29T07:30:23.293Z,18.47
2018-04-29T07:32:50.629Z,18.97
2018-04-29T07:35:19.699Z,19.80
2018-04-29T07:37:48.188Z,19.03
2018-04-29T07:40:16.399Z,18.53
2018-04-29T07:42:45.575Z,16.53
2018-04-29T07:45:14.148Z,16.53
2018-04-29T07:47:42.157Z,13.77
2018-04-29T07:50:11.402Z,11.80
2018-04-29T07:52:40.292Z,11.53
2018-04-29T07:55:08.700Z,11.53
2018-04-29T07:57:36.288Z,10.20
2018-04-29T08:00:04.582Z,11.03
2018-04-29T08:02:32.003Z,10.30
2018-04-29T08:04:59.882Z,9.07
2018-04-29T08:07:27.306Z,11.30
2018-04-29T08:09:55.371Z,10.67
2018-04-29T08:12:23.633Z,9.53
2018-04-29T08:14:50.553Z,9.50
2018-04-29T08:17:17.522Z,8.87
2018-04-29T08:19:45.119Z,9.00
2018-04-29T08:22:11.941Z,8.20
2018-04-29T08:24:38.764Z,9.70
2018-04-29T08:27:05.567Z,9.30
2018-04-29T08:29:32.354Z,8.93
2018-04-29T08:31:59.141Z,9.73
2018-04-29T08:34:25.924Z,8.20
2018-04-29T08:36:52.742Z,8.67
2018-04-29T08:39:19.646Z,9.90
2018-04-29T08:41:46.607Z,8.00
2018-04-29T08:44:13.397Z,10.10
2018-04-29T08:46:40.155Z,8.23
2018-04-29T08:49:06.920Z,9.13
2018-04-29T08:51:33.703Z,9.23
2018-04-29T08:54:00.471Z,8.90
2018-04-29T08:56:27.347Z,9.07
2018-04-29T08:58:54.199Z,8.37
2018-04-29T09:01:20.973Z,8.83
2018-04-29T09:03:47.900Z,9.53
2018-04-29T09:06:14.675Z,9.20
2018-04-29T09:08:41.489Z,8.57
2018-04-29T09:11:09.123Z,9.50
2018-04-29T09:13:36.646Z,9.90
2018-04-29T09:16:04.154Z,8.77
2018-04-29T09:18:31.082Z,7.63
2018-04-29T09:20:59.981Z,8.53
2018-04-29T09:23:28.361Z,8.40
2018-04-29T09:25:55.397Z,8.53
2018-04-29T09:28:23.140Z,8.73
2018-04-29T09:30:50.664Z,7.07
2018-04-29T09:33:17.987Z,7.70
2018-04-29T09:35:44.807Z,7.60
2018-04-29T09:38:11.579Z,8.17
2018-04-29T09:40:38.338Z,8.83
2018-04-29T09:43:05.069Z,8.40
2018-04-29T09:45:31.818Z,10.63
2018-04-29T09:47:58.550Z,7.30
2018-04-29T09:50:25.282Z,7.93
2018-04-29T09:52:52.016Z,8.50
2018-04-29T09:55:19.010Z,8.53
2018-04-29T09:57:45.758Z,7.87
2018-04-29T10:00:12.598Z,8.10
